sensor_id;sensor_type;location;lat;lon;timestamp;temperature;humidity
11989;DHT22;6054;50.966;7.094;2023-01-23T00:01:02;9.70;52.50
11989;DHT22;6054;50.966;7.094;2023-01-23T00:03:29;10.00;52.00
11989;DHT22;6054;50.966;7.094;2023-01-23T00:05:56;9.70;52.30
11989;DHT22;6054;50.966;7.094;2023-01-23T00:08:23;9.70;52.70
11989;DHT22;6054;50.966;7.094;2023-01-23T00:10:50;9.70;52.50
11989;DHT22;6054;50.966;7.094;2023-01-23T00:13:18;9.70;52.40
11989;DHT22;6054;50.966;7.094;2023-01-23T00:15:46;9.70;52.50
11989;DHT22;6054;50.966;7.094;2023-01-23T00:18:13;9.70;52.20
11989;DHT22;6054;50.966;7.094;2023-01-23T00:20:40;9.70;52.40
11989;DHT22;6054;50.966;7.094;2023-01-23T00:23:07;9.70;52.50
11989;DHT22;6054;50.966;7.094;2023-01-23T00:25:35;9.70;52.30
11989;DHT22;6054;50.966;7.094;2023-01-23T00:28:02;10.00;51.30
11989;DHT22;6054;50.966;7.094;2023-01-23T00:30:30;9.70;52.20
11989;DHT22;6054;50.966;7.094;2023-01-23T00:32:56;9.70;52.20
11989;DHT22;6054;50.966;7.094;2023-01-23T00:35:23;9.70;52.30
11989;DHT22;6054;50.966;7.094;2023-01-23T00:37:50;9.70;52.20
11989;DHT22;6054;50.966;7.094;2023-01-23T00:40:17;9.70;52.20
11989;DHT22;6054;50.966;7.094;2023-01-23T00:42:44;9.70;52.20
11989;DHT22;6054;50.966;7.094;2023-01-23T00:45:11;9.90;52.30
11989;DHT22;6054;50.966;7.094;2023-01-23T00:47:39;9.70;52.20
11989;DHT22;6054;50.966;7.094;2023-01-23T00:50:06;9.70;52.30
11989;DHT22;6054;50.966;7.094;2023-01-23T00:52:33;9.70;52.60
11989;DHT22;6054;50.966;7.094;2023-01-23T00:55:00;9.60;52.30
11989;DHT22;6054;50.966;7.094;2023-01-23T00:57:27;9.70;52.40
11989;DHT22;6054;50.966;7.094;2023-01-23T00:59:54;9.70;52.30
11989;DHT22;6054;50.966;7.094;2023-01-23T01:02:21;9.90;52.40
11989;DHT22;6054;50.966;7.094;2023-01-23T01:04:49;9.70;52.20
11989;DHT22;6054;50.966;7.094;2023-01-23T01:07:16;9.70;52.40
11989;DHT22;6054;50.966;7.094;2023-01-23T01:09:42;9.70;52.40
11989;DHT22;6054;50.966;7.094;2023-01-23T01:12:09;9.70;52.40
11989;DHT22;6054;50.966;7.094;2023-01-23T01:14:36;9.70;52.50
11989;DHT22;6054;50.966;7.094;2023-01-23T01:17:03;9.70;52.40
11989;DHT22;6054;50.966;7.094;2023-01-23T01:19:29;9.70;52.30
11989;DHT22;6054;50.966;7.094;2023-01-23T01:21:57;9.70;52.40
11989;DHT22;6054;50.966;7.094;2023-01-23T01:24:24;9.70;52.40
11989;DHT22;6054;50.966;7.094;2023-01-23T01:26:51;9.70;52.50
11989;DHT22;6054;50.966;7.094;2023-01-23T01:29:18;9.70;52.30
11989;DHT22;6054;50.966;7.094;2023-01-23T01:31:44;9.70;52.30
11989;DHT22;6054;50.966;7.094;2023-01-23T01:34:11;9.70;52.40
11989;DHT22;6054;50.966;7.094;2023-01-23T01:36:38;9.70;52.30
11989;DHT22;6054;50.966;7.094;2023-01-23T01:39:06;9.70;52.20
11989;DHT22;6054;50.966;7.094;2023-01-23T01:41:33;9.70;52.20
11989;DHT22;6054;50.966;7.094;2023-01-23T01:44:00;9.70;52.20
11989;DHT22;6054;50.966;7.094;2023-01-23T01:46:28;9.70;52.50
11989;DHT22;6054;50.966;7.094;2023-01-23T01:49:05;9.70;52.50
11989;DHT22;6054;50.966;7.094;2023-01-23T01:51:36;9.90;52.70
11989;DHT22;6054;50.966;7.094;2023-01-23T01:54:10;9.70;52.60
11989;DHT22;6054;50.966;7.094;2023-01-23T01:56:43;9.70;52.50
11989;DHT22;6054;50.966;7.094;2023-01-23T01:59:13;9.70;52.40
11989;DHT22;6054;50.966;7.094;2023-01-23T02:01:41;10.00;51.70
11989;DHT22;6054;50.966;7.094;2023-01-23T02:04:11;9.70;52.40
11989;DHT22;6054;50.966;7.094;2023-01-23T02:06:38;9.70;52.00
11989;DHT22;6054;50.966;7.094;2023-01-23T02:09:11;9.70;52.40
11989;DHT22;6054;50.966;7.094;2023-01-23T02:11:40;9.60;52.20
11989;DHT22;6054;50.966;7.094;2023-01-23T02:14:07;9.60;51.90
11989;DHT22;6054;50.966;7.094;2023-01-23T02:16:36;9.60;52.00
11989;DHT22;6054;50.966;7.094;2023-01-23T02:19:13;9.60;52.30
11989;DHT22;6054;50.966;7.094;2023-01-23T02:21:42;9.60;52.30
11989;DHT22;6054;50.966;7.094;2023-01-23T02:24:17;9.60;52.30
11989;DHT22;6054;50.966;7.094;2023-01-23T02:26:47;9.60;52.30
11989;DHT22;6054;50.966;7.094;2023-01-23T02:29:15;9.60;51.90
11989;DHT22;6054;50.966;7.094;2023-01-23T02:31:43;9.60;52.00
11989;DHT22;6054;50.966;7.094;2023-01-23T02:34:12;9.60;52.10
11989;DHT22;6054;50.966;7.094;2023-01-23T02:36:40;9.60;52.30
11989;DHT22;6054;50.966;7.094;2023-01-23T02:39:10;9.60;52.30
11989;DHT22;6054;50.966;7.094;2023-01-23T02:41:40;9.60;52.40
11989;DHT22;6054;50.966;7.094;2023-01-23T02:44:13;9.60;52.40
11989;DHT22;6054;50.966;7.094;2023-01-23T02:46:41;9.60;52.60
11989;DHT22;6054;50.966;7.094;2023-01-23T02:49:08;9.60;52.30
11989;DHT22;6054;50.966;7.094;2023-01-23T02:51:35;9.60;52.40
11989;DHT22;6054;50.966;7.094;2023-01-23T02:54:02;9.60;52.10
11989;DHT22;6054;50.966;7.094;2023-01-23T02:56:29;9.60;52.20
11989;DHT22;6054;50.966;7.094;2023-01-23T02:58:56;9.60;52.00
11989;DHT22;6054;50.966;7.094;2023-01-23T03:01:42;9.60;52.20
11989;DHT22;6054;50.966;7.094;2023-01-23T03:04:08;9.50;52.10
11989;DHT22;6054;50.966;7.094;2023-01-23T03:06:36;9.50;51.90
11989;DHT22;6054;50.966;7.094;2023-01-23T03:09:05;9.50;52.10
11989;DHT22;6054;50.966;7.094;2023-01-23T03:11:34;9.50;52.30
11989;DHT22;6054;50.966;7.094;2023-01-23T03:14:01;9.50;52.20
11989;DHT22;6054;50.966;7.094;2023-01-23T03:16:28;9.50;52.00
11989;DHT22;6054;50.966;7.094;2023-01-23T03:18:56;9.50;51.90
11989;DHT22;6054;50.966;7.094;2023-01-23T03:21:26;9.50;51.90
11989;DHT22;6054;50.966;7.094;2023-01-23T03:23:52;9.50;51.80
11989;DHT22;6054;50.966;7.094;2023-01-23T03:26:19;9.50;51.90
11989;DHT22;6054;50.966;7.094;2023-01-23T03:28:46;9.50;51.90
11989;DHT22;6054;50.966;7.094;2023-01-23T03:31:30;9.50;52.10
11989;DHT22;6054;50.966;7.094;2023-01-23T03:33:58;9.40;51.90
11989;DHT22;6054;50.966;7.094;2023-01-23T03:36:25;9.40;51.80
11989;DHT22;6054;50.966;7.094;2023-01-23T03:38:52;9.40;51.70
11989;DHT22;6054;50.966;7.094;2023-01-23T03:41:36;9.40;51.80
11989;DHT22;6054;50.966;7.094;2023-01-23T03:44:06;9.30;51.70
11989;DHT22;6054;50.966;7.094;2023-01-23T03:46:33;9.30;51.70
11989;DHT22;6054;50.966;7.094;2023-01-23T03:49:01;9.30;51.80
11989;DHT22;6054;50.966;7.094;2023-01-23T03:51:28;9.30;51.80
11989;DHT22;6054;50.966;7.094;2023-01-23T03:53:55;9.30;51.40
11989;DHT22;6054;50.966;7.094;2023-01-23T03:56:22;9.20;51.60
11989;DHT22;6054;50.966;7.094;2023-01-23T03:58:49;9.20;51.70
11989;DHT22;6054;50.966;7.094;2023-01-23T04:01:15;9.20;51.50
11989;DHT22;6054;50.966;7.094;2023-01-23T04:03:42;9.20;51.70
11989;DHT22;6054;50.966;7.094;2023-01-23T04:06:10;9.20;51.60
11989;DHT22;6054;50.966;7.094;2023-01-23T04:08:37;9.20;51.60
11989;DHT22;6054;50.966;7.094;2023-01-23T04:11:05;9.20;51.50
11989;DHT22;6054;50.966;7.094;2023-01-23T04:13:33;9.10;51.70
11989;DHT22;6054;50.966;7.094;2023-01-23T04:16:00;9.10;51.70
11989;DHT22;6054;50.966;7.094;2023-01-23T04:18:27;9.10;51.60
11989;DHT22;6054;50.966;7.094;2023-01-23T04:20:54;9.10;51.70
11989;DHT22;6054;50.966;7.094;2023-01-23T04:23:23;9.00;51.70
11989;DHT22;6054;50.966;7.094;2023-01-23T04:25:51;9.00;51.70
11989;DHT22;6054;50.966;7.094;2023-01-23T04:28:18;9.00;51.50
11989;DHT22;6054;50.966;7.094;2023-01-23T04:30:45;9.00;51.50
11989;DHT22;6054;50.966;7.094;2023-01-23T04:33:11;8.90;51.10
11989;DHT22;6054;50.966;7.094;2023-01-23T04:35:38;8.90;50.80
11989;DHT22;6054;50.966;7.094;2023-01-23T04:38:05;9.10;51.20
11989;DHT22;6054;50.966;7.094;2023-01-23T04:40:33;8.80;51.70
11989;DHT22;6054;50.966;7.094;2023-01-23T04:43:00;8.80;51.10
11989;DHT22;6054;50.966;7.094;2023-01-23T04:45:26;8.70;51.10
11989;DHT22;6054;50.966;7.094;2023-01-23T04:47:53;8.70;51.10
11989;DHT22;6054;50.966;7.094;2023-01-23T04:50:20;8.80;51.20
11989;DHT22;6054;50.966;7.094;2023-01-23T04:52:46;8.80;51.20
11989;DHT22;6054;50.966;7.094;2023-01-23T04:55:13;8.70;51.20
11989;DHT22;6054;50.966;7.094;2023-01-23T04:57:41;8.70;51.30
11989;DHT22;6054;50.966;7.094;2023-01-23T05:00:09;8.60;51.30
11989;DHT22;6054;50.966;7.094;2023-01-23T05:02:36;8.60;51.50
11989;DHT22;6054;50.966;7.094;2023-01-23T05:05:03;8.60;51.20
11989;DHT22;6054;50.966;7.094;2023-01-23T05:07:30;8.60;51.40
11989;DHT22;6054;50.966;7.094;2023-01-23T05:09:57;8.50;51.30
11989;DHT22;6054;50.966;7.094;2023-01-23T05:12:24;8.50;51.20
11989;DHT22;6054;50.966;7.094;2023-01-23T05:14:52;8.50;51.00
11989;DHT22;6054;50.966;7.094;2023-01-23T05:17:19;8.50;51.00
11989;DHT22;6054;50.966;7.094;2023-01-23T05:19:45;8.40;50.80
11989;DHT22;6054;50.966;7.094;2023-01-23T05:22:12;8.40;50.90
11989;DHT22;6054;50.966;7.094;2023-01-23T05:24:39;8.40;51.00
11989;DHT22;6054;50.966;7.094;2023-01-23T05:27:06;8.40;51.00
11989;DHT22;6054;50.966;7.094;2023-01-23T05:29:32;8.40;51.10
11989;DHT22;6054;50.966;7.094;2023-01-23T05:32:00;8.40;51.10
11989;DHT22;6054;50.966;7.094;2023-01-23T05:34:27;8.30;51.10
11989;DHT22;6054;50.966;7.094;2023-01-23T05:36:54;8.30;51.20
11989;DHT22;6054;50.966;7.094;2023-01-23T05:39:21;8.30;51.10
11989;DHT22;6054;50.966;7.094;2023-01-23T05:41:48;8.30;50.80
11989;DHT22;6054;50.966;7.094;2023-01-23T05:44:14;8.30;50.90
11989;DHT22;6054;50.966;7.094;2023-01-23T05:46:41;8.30;50.80
11989;DHT22;6054;50.966;7.094;2023-01-23T05:49:09;8.20;50.70
11989;DHT22;6054;50.966;7.094;2023-01-23T05:51:36;8.20;50.80
11989;DHT22;6054;50.966;7.094;2023-01-23T05:54:03;8.20;51.00
11989;DHT22;6054;50.966;7.094;2023-01-23T05:56:30;8.20;51.40
11989;DHT22;6054;50.966;7.094;2023-01-23T05:58:57;8.20;51.20
11989;DHT22;6054;50.966;7.094;2023-01-23T06:01:23;8.20;51.20
11989;DHT22;6054;50.966;7.094;2023-01-23T06:03:50;8.20;51.40
11989;DHT22;6054;50.966;7.094;2023-01-23T06:06:18;8.20;51.20
11989;DHT22;6054;50.966;7.094;2023-01-23T06:08:45;8.20;51.20
11989;DHT22;6054;50.966;7.094;2023-01-23T06:11:12;8.10;51.00
11989;DHT22;6054;50.966;7.094;2023-01-23T06:13:39;8.10;51.10
11989;DHT22;6054;50.966;7.094;2023-01-23T06:16:06;8.10;51.20
11989;DHT22;6054;50.966;7.094;2023-01-23T06:18:34;8.10;51.50
11989;DHT22;6054;50.966;7.094;2023-01-23T06:21:00;8.10;51.40
11989;DHT22;6054;50.966;7.094;2023-01-23T06:23:29;8.10;51.50
11989;DHT22;6054;50.966;7.094;2023-01-23T06:25:59;8.10;51.60
11989;DHT22;6054;50.966;7.094;2023-01-23T06:28:26;8.10;52.20
11989;DHT22;6054;50.966;7.094;2023-01-23T06:30:53;8.20;52.00
11989;DHT22;6054;50.966;7.094;2023-01-23T06:33:19;8.20;52.20
11989;DHT22;6054;50.966;7.094;2023-01-23T06:35:46;8.20;52.20
11989;DHT22;6054;50.966;7.094;2023-01-23T06:38:13;8.30;52.20
11989;DHT22;6054;50.966;7.094;2023-01-23T06:40:42;8.30;52.10
11989;DHT22;6054;50.966;7.094;2023-01-23T06:43:09;8.30;52.00
11989;DHT22;6054;50.966;7.094;2023-01-23T06:45:36;8.30;52.20
11989;DHT22;6054;50.966;7.094;2023-01-23T06:48:03;8.30;52.30
11989;DHT22;6054;50.966;7.094;2023-01-23T06:50:29;8.40;52.40
11989;DHT22;6054;50.966;7.094;2023-01-23T06:52:56;8.40;52.40
11989;DHT22;6054;50.966;7.094;2023-01-23T06:55:23;8.40;52.10
11989;DHT22;6054;50.966;7.094;2023-01-23T06:57:51;8.50;52.50
11989;DHT22;6054;50.966;7.094;2023-01-23T07:00:18;8.50;52.50
11989;DHT22;6054;50.966;7.094;2023-01-23T07:02:45;8.50;52.90
11989;DHT22;6054;50.966;7.094;2023-01-23T07:05:12;8.60;52.80
11989;DHT22;6054;50.966;7.094;2023-01-23T07:07:39;8.60;52.60
11989;DHT22;6054;50.966;7.094;2023-01-23T07:10:07;8.60;52.70
11989;DHT22;6054;50.966;7.094;2023-01-23T07:12:34;8.60;52.90
11989;DHT22;6054;50.966;7.094;2023-01-23T07:15:02;8.90;52.80
11989;DHT22;6054;50.966;7.094;2023-01-23T07:17:29;8.70;52.90
11989;DHT22;6054;50.966;7.094;2023-01-23T07:19:56;8.70;52.80
11989;DHT22;6054;50.966;7.094;2023-01-23T07:22:23;8.80;52.90
11989;DHT22;6054;50.966;7.094;2023-01-23T07:24:49;8.80;52.80
11989;DHT22;6054;50.966;7.094;2023-01-23T07:27:16;8.80;52.70
11989;DHT22;6054;50.966;7.094;2023-01-23T07:29:43;8.80;52.70
11989;DHT22;6054;50.966;7.094;2023-01-23T07:32:11;8.90;52.80
11989;DHT22;6054;50.966;7.094;2023-01-23T07:34:38;8.90;52.80
11989;DHT22;6054;50.966;7.094;2023-01-23T07:37:05;8.90;52.70
11989;DHT22;6054;50.966;7.094;2023-01-23T07:39:31;8.90;52.80
11989;DHT22;6054;50.966;7.094;2023-01-23T07:41:58;9.10;52.80
11989;DHT22;6054;50.966;7.094;2023-01-23T07:44:25;9.00;52.60
11989;DHT22;6054;50.966;7.094;2023-01-23T07:46:52;9.00;52.70
11989;DHT22;6054;50.966;7.094;2023-01-23T07:49:20;9.00;52.60
11989;DHT22;6054;50.966;7.094;2023-01-23T07:51:47;9.00;52.70
11989;DHT22;6054;50.966;7.094;2023-01-23T07:54:13;9.00;52.60
11989;DHT22;6054;50.966;7.094;2023-01-23T07:56:40;9.00;52.60
11989;DHT22;6054;50.966;7.094;2023-01-23T07:59:07;9.10;52.70
11989;DHT22;6054;50.966;7.094;2023-01-23T08:01:34;9.10;52.60
11989;DHT22;6054;50.966;7.094;2023-01-23T08:04:00;9.10;52.50
11989;DHT22;6054;50.966;7.094;2023-01-23T08:06:28;9.10;52.60
11989;DHT22;6054;50.966;7.094;2023-01-23T08:08:55;9.10;52.60
11989;DHT22;6054;50.966;7.094;2023-01-23T08:11:22;9.10;52.60
11989;DHT22;6054;50.966;7.094;2023-01-23T08:13:51;9.20;52.80
11989;DHT22;6054;50.966;7.094;2023-01-23T08:16:18;9.20;53.00
11989;DHT22;6054;50.966;7.094;2023-01-23T08:18:45;9.20;52.60
11989;DHT22;6054;50.966;7.094;2023-01-23T08:21:12;9.20;52.90
11989;DHT22;6054;50.966;7.094;2023-01-23T08:23:40;9.20;52.60
11989;DHT22;6054;50.966;7.094;2023-01-23T08:26:08;9.30;52.60
11989;DHT22;6054;50.966;7.094;2023-01-23T08:28:38;9.30;52.90
11989;DHT22;6054;50.966;7.094;2023-01-23T08:31:06;9.50;52.90
11989;DHT22;6054;50.966;7.094;2023-01-23T08:33:34;9.30;52.80
11989;DHT22;6054;50.966;7.094;2023-01-23T08:36:01;9.30;52.70
11989;DHT22;6054;50.966;7.094;2023-01-23T08:38:29;9.30;52.80
11989;DHT22;6054;50.966;7.094;2023-01-23T08:41:00;9.30;52.80
11989;DHT22;6054;50.966;7.094;2023-01-23T08:43:27;9.60;53.00
11989;DHT22;6054;50.966;7.094;2023-01-23T08:45:55;9.30;52.20
11989;DHT22;6054;50.966;7.094;2023-01-23T08:48:23;9.40;52.90
11989;DHT22;6054;50.966;7.094;2023-01-23T08:50:51;9.40;53.00
11989;DHT22;6054;50.966;7.094;2023-01-23T08:53:18;9.40;52.90
11989;DHT22;6054;50.966;7.094;2023-01-23T08:55:44;9.40;52.40
11989;DHT22;6054;50.966;7.094;2023-01-23T08:58:12;9.40;52.40
11989;DHT22;6054;50.966;7.094;2023-01-23T09:00:39;9.40;52.30
11989;DHT22;6054;50.966;7.094;2023-01-23T09:03:06;9.50;52.50
11989;DHT22;6054;50.966;7.094;2023-01-23T09:05:33;9.50;52.10
11989;DHT22;6054;50.966;7.094;2023-01-23T09:08:01;9.60;53.00
11989;DHT22;6054;50.966;7.094;2023-01-23T09:10:27;9.50;52.50
11989;DHT22;6054;50.966;7.094;2023-01-23T09:12:54;9.50;52.10
11989;DHT22;6054;50.966;7.094;2023-01-23T09:15:22;9.60;52.20
11989;DHT22;6054;50.966;7.094;2023-01-23T09:17:49;9.80;52.40
11989;DHT22;6054;50.966;7.094;2023-01-23T09:20:16;9.60;52.40
11989;DHT22;6054;50.966;7.094;2023-01-23T09:22:43;9.60;52.20
11989;DHT22;6054;50.966;7.094;2023-01-23T09:25:10;9.60;52.20
11989;DHT22;6054;50.966;7.094;2023-01-23T09:27:37;9.70;52.30
11989;DHT22;6054;50.966;7.094;2023-01-23T09:30:05;9.90;52.70
11989;DHT22;6054;50.966;7.094;2023-01-23T09:32:33;9.70;53.00
11989;DHT22;6054;50.966;7.094;2023-01-23T09:35:01;9.80;52.40
11989;DHT22;6054;50.966;7.094;2023-01-23T09:37:28;9.90;52.90
11989;DHT22;6054;50.966;7.094;2023-01-23T09:40:16;9.80;53.00
11989;DHT22;6054;50.966;7.094;2023-01-23T09:42:44;9.80;52.80
11989;DHT22;6054;50.966;7.094;2023-01-23T09:45:16;9.80;53.50
11989;DHT22;6054;50.966;7.094;2023-01-23T09:47:50;9.80;52.80
11989;DHT22;6054;50.966;7.094;2023-01-23T09:50:23;9.80;52.80
11989;DHT22;6054;50.966;7.094;2023-01-23T09:52:56;9.90;52.70
11989;DHT22;6054;50.966;7.094;2023-01-23T09:55:33;9.90;52.70
11989;DHT22;6054;50.966;7.094;2023-01-23T09:58:03;9.90;52.80
11989;DHT22;6054;50.966;7.094;2023-01-23T10:00:32;9.90;52.70
11989;DHT22;6054;50.966;7.094;2023-01-23T10:03:10;9.90;52.70
11989;DHT22;6054;50.966;7.094;2023-01-23T10:05:43;10.10;52.10
11989;DHT22;6054;50.966;7.094;2023-01-23T10:08:17;9.90;52.70
11989;DHT22;6054;50.966;7.094;2023-01-23T10:10:57;10.00;51.80
11989;DHT22;6054;50.966;7.094;2023-01-23T10:13:34;10.00;51.90
11989;DHT22;6054;50.966;7.094;2023-01-23T10:16:21;10.00;51.90
11989;DHT22;6054;50.966;7.094;2023-01-23T10:19:02;10.00;51.80
11989;DHT22;6054;50.966;7.094;2023-01-23T10:21:34;10.00;51.80
11989;DHT22;6054;50.966;7.094;2023-01-23T10:24:19;10.10;51.90
11989;DHT22;6054;50.966;7.094;2023-01-23T10:26:52;10.10;51.90
11989;DHT22;6054;50.966;7.094;2023-01-23T10:29:29;10.10;51.70
11989;DHT22;6054;50.966;7.094;2023-01-23T10:31:58;10.20;51.80
11989;DHT22;6054;50.966;7.094;2023-01-23T10:34:33;10.20;51.40
11989;DHT22;6054;50.966;7.094;2023-01-23T10:37:10;10.40;51.60
11989;DHT22;6054;50.966;7.094;2023-01-23T10:39:46;10.30;51.80
11989;DHT22;6054;50.966;7.094;2023-01-23T10:42:18;10.30;51.60
11989;DHT22;6054;50.966;7.094;2023-01-23T10:44:46;10.30;51.40
11989;DHT22;6054;50.966;7.094;2023-01-23T10:47:19;10.40;50.70
11989;DHT22;6054;50.966;7.094;2023-01-23T10:49:47;10.70;51.70
11989;DHT22;6054;50.966;7.094;2023-01-23T10:52:30;10.50;51.30
11989;DHT22;6054;50.966;7.094;2023-01-23T10:54:57;10.50;51.20
11989;DHT22;6054;50.966;7.094;2023-01-23T10:57:25;10.50;50.50
11989;DHT22;6054;50.966;7.094;2023-01-23T10:59:55;10.50;50.90
11989;DHT22;6054;50.966;7.094;2023-01-23T11:02:26;10.50;50.80
11989;DHT22;6054;50.966;7.094;2023-01-23T11:04:55;10.60;50.80
11989;DHT22;6054;50.966;7.094;2023-01-23T11:07:24;10.60;50.70
11989;DHT22;6054;50.966;7.094;2023-01-23T11:09:54;10.60;50.80
11989;DHT22;6054;50.966;7.094;2023-01-23T11:12:22;10.60;50.70
11989;DHT22;6054;50.966;7.094;2023-01-23T11:14:50;10.70;50.40
11989;DHT22;6054;50.966;7.094;2023-01-23T11:17:22;10.70;50.20
11989;DHT22;6054;50.966;7.094;2023-01-23T11:19:50;10.70;50.40
11989;DHT22;6054;50.966;7.094;2023-01-23T11:22:29;10.70;50.40
11989;DHT22;6054;50.966;7.094;2023-01-23T11:24:57;10.70;50.10
11989;DHT22;6054;50.966;7.094;2023-01-23T11:27:25;10.70;50.00
11989;DHT22;6054;50.966;7.094;2023-01-23T11:30:29;10.70;49.90
11989;DHT22;6054;50.966;7.094;2023-01-23T11:33:03;10.70;49.40
11989;DHT22;6054;50.966;7.094;2023-01-23T11:35:49;10.70;49.60
11989;DHT22;6054;50.966;7.094;2023-01-23T11:38:25;10.70;49.80
11989;DHT22;6054;50.966;7.094;2023-01-23T11:40:52;10.80;49.60
11989;DHT22;6054;50.966;7.094;2023-01-23T11:43:19;10.80;49.00
11989;DHT22;6054;50.966;7.094;2023-01-23T11:51:37;10.80;48.90
11989;DHT22;6054;50.966;7.094;2023-01-23T11:54:32;10.80;48.70
11989;DHT22;6054;50.966;7.094;2023-01-23T11:57:03;11.10;49.00
11989;DHT22;6054;50.966;7.094;2023-01-23T11:59:58;10.80;48.40
11989;DHT22;6054;50.966;7.094;2023-01-23T12:06:02;10.80;47.20
11989;DHT22;6054;50.966;7.094;2023-01-23T12:08:38;10.70;47.60
11989;DHT22;6054;50.966;7.094;2023-01-23T12:11:12;10.80;47.60
11989;DHT22;6054;50.966;7.094;2023-01-23T12:14:02;10.80;47.40
11989;DHT22;6054;50.966;7.094;2023-01-23T12:16:42;10.80;47.30
11989;DHT22;6054;50.966;7.094;2023-01-23T12:19:23;10.90;47.60
11989;DHT22;6054;50.966;7.094;2023-01-23T12:21:56;10.90;47.60
11989;DHT22;6054;50.966;7.094;2023-01-23T12:24:35;11.30;46.90
11989;DHT22;6054;50.966;7.094;2023-01-23T12:27:12;10.90;47.00
11989;DHT22;6054;50.966;7.094;2023-01-23T12:30:00;11.00;47.10
11989;DHT22;6054;50.966;7.094;2023-01-23T12:32:41;11.00;46.70
11989;DHT22;6054;50.966;7.094;2023-01-23T12:35:25;11.00;46.70
11989;DHT22;6054;50.966;7.094;2023-01-23T12:38:06;11.00;46.90
11989;DHT22;6054;50.966;7.094;2023-01-23T12:40:39;11.20;47.20
11989;DHT22;6054;50.966;7.094;2023-01-23T12:43:13;11.00;47.10
11989;DHT22;6054;50.966;7.094;2023-01-23T12:45:44;11.10;47.10
11989;DHT22;6054;50.966;7.094;2023-01-23T12:48:18;11.10;47.00
11989;DHT22;6054;50.966;7.094;2023-01-23T12:50:50;11.10;46.60
11989;DHT22;6054;50.966;7.094;2023-01-23T12:53:19;11.10;46.40
11989;DHT22;6054;50.966;7.094;2023-01-23T12:55:54;11.10;46.40
11989;DHT22;6054;50.966;7.094;2023-01-23T12:58:26;11.10;46.70
11989;DHT22;6054;50.966;7.094;2023-01-23T13:01:10;11.10;46.50
11989;DHT22;6054;50.966;7.094;2023-01-23T13:03:50;11.10;46.20
11989;DHT22;6054;50.966;7.094;2023-01-23T13:06:28;11.10;46.30
11989;DHT22;6054;50.966;7.094;2023-01-23T13:09:03;11.10;46.40
11989;DHT22;6054;50.966;7.094;2023-01-23T13:11:39;11.10;46.30
11989;DHT22;6054;50.966;7.094;2023-01-23T13:14:20;11.20;46.20
11989;DHT22;6054;50.966;7.094;2023-01-23T13:16:49;11.10;46.20
11989;DHT22;6054;50.966;7.094;2023-01-23T13:19:22;11.10;46.30
11989;DHT22;6054;50.966;7.094;2023-01-23T13:22:22;11.20;46.60
11989;DHT22;6054;50.966;7.094;2023-01-23T13:24:49;11.20;46.50
11989;DHT22;6054;50.966;7.094;2023-01-23T13:27:41;11.30;46.50
11989;DHT22;6054;50.966;7.094;2023-01-23T13:30:40;11.20;46.50
11989;DHT22;6054;50.966;7.094;2023-01-23T13:33:46;11.20;46.30
11989;DHT22;6054;50.966;7.094;2023-01-23T13:36:27;11.20;46.20
11989;DHT22;6054;50.966;7.094;2023-01-23T13:39:21;11.20;46.30
11989;DHT22;6054;50.966;7.094;2023-01-23T13:41:50;11.20;46.40
11989;DHT22;6054;50.966;7.094;2023-01-23T13:44:21;11.30;46.40
11989;DHT22;6054;50.966;7.094;2023-01-23T13:47:14;11.30;46.20
11989;DHT22;6054;50.966;7.094;2023-01-23T13:50:05;11.30;46.10
11989;DHT22;6054;50.966;7.094;2023-01-23T13:52:36;11.30;46.20
11989;DHT22;6054;50.966;7.094;2023-01-23T13:55:23;11.30;46.30
11989;DHT22;6054;50.966;7.094;2023-01-23T13:58:10;11.30;46.40
11989;DHT22;6054;50.966;7.094;2023-01-23T14:00:38;11.40;46.30
11989;DHT22;6054;50.966;7.094;2023-01-23T14:03:26;11.40;46.20
11989;DHT22;6054;50.966;7.094;2023-01-23T14:06:11;11.40;46.20
11989;DHT22;6054;50.966;7.094;2023-01-23T14:08:46;11.40;46.10
11989;DHT22;6054;50.966;7.094;2023-01-23T14:11:14;11.40;46.00
11989;DHT22;6054;50.966;7.094;2023-01-23T14:13:46;11.40;45.80
11989;DHT22;6054;50.966;7.094;2023-01-23T14:16:14;11.40;46.00
11989;DHT22;6054;50.966;7.094;2023-01-23T14:18:50;11.40;45.80
11989;DHT22;6054;50.966;7.094;2023-01-23T14:21:22;11.40;45.90
11989;DHT22;6054;50.966;7.094;2023-01-23T14:23:50;11.40;45.80
11989;DHT22;6054;50.966;7.094;2023-01-23T14:26:20;11.40;45.60
11989;DHT22;6054;50.966;7.094;2023-01-23T14:28:54;11.40;45.70
11989;DHT22;6054;50.966;7.094;2023-01-23T14:31:24;11.40;45.60
11989;DHT22;6054;50.966;7.094;2023-01-23T14:33:58;11.40;45.80
11989;DHT22;6054;50.966;7.094;2023-01-23T14:36:26;11.40;45.70
11989;DHT22;6054;50.966;7.094;2023-01-23T14:38:54;11.40;45.60
11989;DHT22;6054;50.966;7.094;2023-01-23T14:41:25;11.40;45.60
11989;DHT22;6054;50.966;7.094;2023-01-23T14:43:53;11.60;45.70
11989;DHT22;6054;50.966;7.094;2023-01-23T14:46:31;11.40;45.60
11989;DHT22;6054;50.966;7.094;2023-01-23T14:49:02;11.40;45.60
11989;DHT22;6054;50.966;7.094;2023-01-23T14:51:31;11.40;45.60
11989;DHT22;6054;50.966;7.094;2023-01-23T14:53:59;11.40;45.40
11989;DHT22;6054;50.966;7.094;2023-01-23T14:56:28;11.40;45.70
11989;DHT22;6054;50.966;7.094;2023-01-23T14:58:57;11.40;45.80
11989;DHT22;6054;50.966;7.094;2023-01-23T15:01:25;11.40;45.80
11989;DHT22;6054;50.966;7.094;2023-01-23T15:03:58;11.50;45.80
11989;DHT22;6054;50.966;7.094;2023-01-23T15:06:28;11.40;45.90
11989;DHT22;6054;50.966;7.094;2023-01-23T15:09:05;11.50;45.90
11989;DHT22;6054;50.966;7.094;2023-01-23T15:11:32;11.40;46.00
11989;DHT22;6054;50.966;7.094;2023-01-23T15:14:00;11.40;46.00
11989;DHT22;6054;50.966;7.094;2023-01-23T15:16:32;11.40;45.90
11989;DHT22;6054;50.966;7.094;2023-01-23T15:19:03;11.40;46.30
11989;DHT22;6054;50.966;7.094;2023-01-23T15:21:35;11.40;46.40
11989;DHT22;6054;50.966;7.094;2023-01-23T15:27:02;11.40;46.40
11989;DHT22;6054;50.966;7.094;2023-01-23T15:29:30;11.40;46.50
11989;DHT22;6054;50.966;7.094;2023-01-23T15:31:58;11.40;46.60
11989;DHT22;6054;50.966;7.094;2023-01-23T15:34:28;11.40;46.60
11989;DHT22;6054;50.966;7.094;2023-01-23T15:37:00;11.30;46.80
11989;DHT22;6054;50.966;7.094;2023-01-23T15:39:32;11.30;46.80
11989;DHT22;6054;50.966;7.094;2023-01-23T15:42:01;11.30;46.80
11989;DHT22;6054;50.966;7.094;2023-01-23T15:44:30;11.30;46.80
11989;DHT22;6054;50.966;7.094;2023-01-23T15:46:57;11.30;46.80
11989;DHT22;6054;50.966;7.094;2023-01-23T15:49:28;11.30;47.00
11989;DHT22;6054;50.966;7.094;2023-01-23T15:51:57;11.30;46.80
11989;DHT22;6054;50.966;7.094;2023-01-23T15:54:30;11.30;47.00
11989;DHT22;6054;50.966;7.094;2023-01-23T15:56:57;11.30;47.00
11989;DHT22;6054;50.966;7.094;2023-01-23T15:59:25;11.20;47.00
11989;DHT22;6054;50.966;7.094;2023-01-23T16:01:52;11.30;47.20
11989;DHT22;6054;50.966;7.094;2023-01-23T16:04:19;11.30;47.00
11989;DHT22;6054;50.966;7.094;2023-01-23T16:06:46;11.30;47.10
11989;DHT22;6054;50.966;7.094;2023-01-23T16:09:20;11.30;47.40
11989;DHT22;6054;50.966;7.094;2023-01-23T16:11:49;11.20;47.40
11989;DHT22;6054;50.966;7.094;2023-01-23T16:14:16;11.20;47.20
11989;DHT22;6054;50.966;7.094;2023-01-23T16:16:43;11.20;47.30
11989;DHT22;6054;50.966;7.094;2023-01-23T16:19:10;11.20;47.30
11989;DHT22;6054;50.966;7.094;2023-01-23T16:21:37;11.20;47.10
11989;DHT22;6054;50.966;7.094;2023-01-23T16:24:10;11.20;47.50
11989;DHT22;6054;50.966;7.094;2023-01-23T16:26:42;11.20;47.50